TimeEST,TemperatureF,Dew PointF,Humidity,Sea Level PressureIn,VisibilityMPH,Wind Direction,Wind SpeedMPH,Gust SpeedMPH,PrecipitationIn,Events,Conditions,WindDirDegrees,DateUTC
12:55 AM,14.5,1.9,57,30.32,10.0,NW,5.8,-,N/A,,Clear,310,2013-01-22 05:55:00
1:55 AM,13.6,1.8,59,30.33,10.0,NW,5.8,-,N/A,,Clear,310,2013-01-22 06:55:00
2:55 AM,11.7,3.4,69,30.34,10.0,Calm,Calm,-,N/A,,Clear,0,2013-01-22 07:55:00
3:55 AM,11.5,3.4,70,30.35,10.0,Calm,Calm,-,N/A,,Clear,0,2013-01-22 08:55:00
4:55 AM,12.7,0.1,57,30.35,10.0,NW,9.2,-,N/A,,Partly Cloudy,310,2013-01-22 09:55:00
5:55 AM,12.9,-0.2,56,30.37,10.0,WNW,6.9,-,N/A,,Overcast,290,2013-01-22 10:55:00
6:55 AM,12.9,0.1,57,30.39,10.0,NNW,9.2,-,N/A,,Mostly Cloudy,340,2013-01-22 11:55:00
7:55 AM,11.7,-0.9,57,30.41,10.0,NNW,6.9,-,N/A,,Mostly Cloudy,340,2013-01-22 12:55:00
8:55 AM,11.8,-1.7,55,30.43,10.0,NW,6.9,-,N/A,,Scattered Clouds,320,2013-01-22 13:55:00
9:55 AM,15.1,-0.8,50,30.44,10.0,SW,4.6,-,N/A,,Clear,230,2013-01-22 14:55:00
10:55 AM,16.3,-4.4,40,30.45,10.0,WNW,10.4,-,N/A,,Clear,290,2013-01-22 15:55:00
11:55 AM,18.7,-3.5,38,30.45,10.0,WNW,8.1,-,N/A,,Scattered Clouds,290,2013-01-22 16:55:00
12:55 PM,19.6,-4.2,35,30.42,10.0,WNW,10.4,-,N/A,,Overcast,300,2013-01-22 17:55:00
1:55 PM,21.4,-4.0,33,30.39,10.0,WSW,10.4,-,N/A,,Mostly Cloudy,250,2013-01-22 18:55:00
2:55 PM,22.5,-4.5,31,30.38,10.0,West,16.1,20.7,N/A,,Overcast,260,2013-01-22 19:55:00
3:55 PM,21.6,-4.2,32,30.40,10.0,West,9.2,-,N/A,,Mostly Cloudy,260,2013-01-22 20:55:00
4:55 PM,21.0,-3.1,35,30.38,10.0,West,10.4,-,N/A,,Mostly Cloudy,260,2013-01-22 21:55:00
5:55 PM,20.3,-3.8,35,30.38,10.0,West,8.1,-,N/A,,Mostly Cloudy,270,2013-01-22 22:55:00
6:55 PM,20.5,-0.9,39,30.40,10.0,WSW,5.8,-,N/A,,Mostly Cloudy,250,2013-01-22 23:55:00
7:55 PM,19.9,0.9,44,30.38,10.0,WSW,6.9,-,N/A,,Overcast,240,2013-01-23 00:55:00
8:55 PM,18.9,0.5,45,30.38,10.0,West,4.6,-,N/A,,Overcast,280,2013-01-23 01:55:00
9:55 PM,18.9,1.0,46,30.39,10.0,WNW,4.6,-,N/A,,Overcast,300,2013-01-23 02:55:00
10:55 PM,18.7,2.8,50,30.40,10.0,West,4.6,-,N/A,,Mostly Cloudy,270,2013-01-23 03:55:00
11:55 PM,16.7,3.2,55,30.40,10.0,WSW,5.8,-,N/A,,Partly Cloudy,250,2013-01-23 04:55:00